sensor_id;sensor_type;location;lat;lon;timestamp;temperature;humidity
3051;DHT22;1535;51.098;6.414;2023-02-28T00:00:07;-0.40;99.90
3051;DHT22;1535;51.098;6.414;2023-02-28T00:02:36;-0.40;99.90
3051;DHT22;1535;51.098;6.414;2023-02-28T00:05:03;-0.40;99.90
3051;DHT22;1535;51.098;6.414;2023-02-28T00:07:30;-0.50;99.90
3051;DHT22;1535;51.098;6.414;2023-02-28T00:09:58;-0.50;99.90
3051;DHT22;1535;51.098;6.414;2023-02-28T00:12:25;-0.50;99.90
3051;DHT22;1535;51.098;6.414;2023-02-28T00:14:52;-0.50;99.90
3051;DHT22;1535;51.098;6.414;2023-02-28T00:17:20;-0.50;99.90
3051;DHT22;1535;51.098;6.414;2023-02-28T00:19:47;-0.60;99.90
3051;DHT22;1535;51.098;6.414;2023-02-28T00:22:15;-0.60;99.90
3051;DHT22;1535;51.098;6.414;2023-02-28T00:24:42;-0.60;99.90
3051;DHT22;1535;51.098;6.414;2023-02-28T00:27:09;-0.70;99.90
3051;DHT22;1535;51.098;6.414;2023-02-28T00:29:36;-0.70;99.90
3051;DHT22;1535;51.098;6.414;2023-02-28T00:32:05;-0.70;99.90
3051;DHT22;1535;51.098;6.414;2023-02-28T00:34:33;-0.80;99.90
3051;DHT22;1535;51.098;6.414;2023-02-28T00:37:04;-0.80;99.90
3051;DHT22;1535;51.098;6.414;2023-02-28T00:39:34;-0.80;99.90
3051;DHT22;1535;51.098;6.414;2023-02-28T00:42:01;-0.80;99.90
3051;DHT22;1535;51.098;6.414;2023-02-28T00:44:29;-0.80;99.90
3051;DHT22;1535;51.098;6.414;2023-02-28T00:46:57;-0.80;99.90
3051;DHT22;1535;51.098;6.414;2023-02-28T00:49:24;-0.80;99.90
3051;DHT22;1535;51.098;6.414;2023-02-28T00:51:53;-0.80;99.90
3051;DHT22;1535;51.098;6.414;2023-02-28T00:54:21;-0.80;99.90
3051;DHT22;1535;51.098;6.414;2023-02-28T00:56:49;-0.80;99.90
3051;DHT22;1535;51.098;6.414;2023-02-28T00:59:17;-0.90;99.90
3051;DHT22;1535;51.098;6.414;2023-02-28T01:01:45;-0.90;99.90
3051;DHT22;1535;51.098;6.414;2023-02-28T01:04:13;-0.90;99.90
3051;DHT22;1535;51.098;6.414;2023-02-28T01:06:40;-0.90;99.90
3051;DHT22;1535;51.098;6.414;2023-02-28T01:09:09;-0.90;99.90
3051;DHT22;1535;51.098;6.414;2023-02-28T01:11:37;-0.90;99.90
3051;DHT22;1535;51.098;6.414;2023-02-28T01:14:06;-0.90;99.90
3051;DHT22;1535;51.098;6.414;2023-02-28T01:16:33;-0.90;99.90
3051;DHT22;1535;51.098;6.414;2023-02-28T01:18:59;-0.90;99.90
3051;DHT22;1535;51.098;6.414;2023-02-28T01:21:26;-0.90;99.90
3051;DHT22;1535;51.098;6.414;2023-02-28T01:23:56;-0.90;99.90
3051;DHT22;1535;51.098;6.414;2023-02-28T01:26:24;-1.00;99.90
3051;DHT22;1535;51.098;6.414;2023-02-28T01:28:54;-1.00;99.90
3051;DHT22;1535;51.098;6.414;2023-02-28T01:31:22;-0.90;99.90
3051;DHT22;1535;51.098;6.414;2023-02-28T01:33:49;-0.90;99.90
3051;DHT22;1535;51.098;6.414;2023-02-28T01:36:17;-0.90;99.90
3051;DHT22;1535;51.098;6.414;2023-02-28T01:38:46;-0.90;99.90
3051;DHT22;1535;51.098;6.414;2023-02-28T01:41:16;-0.90;99.90
3051;DHT22;1535;51.098;6.414;2023-02-28T01:43:56;-0.80;99.90
3051;DHT22;1535;51.098;6.414;2023-02-28T01:46:24;-0.90;99.90
3051;DHT22;1535;51.098;6.414;2023-02-28T01:48:55;-0.80;99.90
3051;DHT22;1535;51.098;6.414;2023-02-28T01:51:27;-0.80;99.90
3051;DHT22;1535;51.098;6.414;2023-02-28T01:53:57;-0.90;99.90
3051;DHT22;1535;51.098;6.414;2023-02-28T01:56:29;-0.90;99.90
3051;DHT22;1535;51.098;6.414;2023-02-28T01:58:59;-0.90;99.90
3051;DHT22;1535;51.098;6.414;2023-02-28T02:01:27;-0.90;99.90
3051;DHT22;1535;51.098;6.414;2023-02-28T02:03:57;-0.80;99.90
3051;DHT22;1535;51.098;6.414;2023-02-28T02:06:27;-0.70;99.90
3051;DHT22;1535;51.098;6.414;2023-02-28T02:08:55;-0.60;99.90
3051;DHT22;1535;51.098;6.414;2023-02-28T02:11:23;-0.60;99.90
3051;DHT22;1535;51.098;6.414;2023-02-28T02:14:08;-0.60;99.90
3051;DHT22;1535;51.098;6.414;2023-02-28T02:16:50;-0.50;99.90
3051;DHT22;1535;51.098;6.414;2023-02-28T02:19:36;-0.50;99.90
3051;DHT22;1535;51.098;6.414;2023-02-28T02:25:12;-0.40;99.90
3051;DHT22;1535;51.098;6.414;2023-02-28T02:28:08;-0.40;99.90
3051;DHT22;1535;51.098;6.414;2023-02-28T02:31:00;-0.50;99.90
3051;DHT22;1535;51.098;6.414;2023-02-28T02:36:33;-0.50;99.90
3051;DHT22;1535;51.098;6.414;2023-02-28T02:39:07;-0.60;99.90
3051;DHT22;1535;51.098;6.414;2023-02-28T02:41:38;-0.70;99.90
3051;DHT22;1535;51.098;6.414;2023-02-28T02:44:12;-0.80;99.90
3051;DHT22;1535;51.098;6.414;2023-02-28T02:46:43;-0.80;99.90
3051;DHT22;1535;51.098;6.414;2023-02-28T02:49:15;-0.90;99.90
3051;DHT22;1535;51.098;6.414;2023-02-28T02:51:44;-0.90;99.90
3051;DHT22;1535;51.098;6.414;2023-02-28T02:54:16;-0.90;99.90
3051;DHT22;1535;51.098;6.414;2023-02-28T02:56:46;-0.90;99.90
3051;DHT22;1535;51.098;6.414;2023-02-28T02:59:16;-1.00;99.90
3051;DHT22;1535;51.098;6.414;2023-02-28T03:01:49;-1.10;99.90
3051;DHT22;1535;51.098;6.414;2023-02-28T03:04:19;-1.10;99.90
3051;DHT22;1535;51.098;6.414;2023-02-28T03:06:49;-1.10;99.90
3051;DHT22;1535;51.098;6.414;2023-02-28T03:09:20;-1.10;99.90
3051;DHT22;1535;51.098;6.414;2023-02-28T03:11:47;-1.20;99.90
3051;DHT22;1535;51.098;6.414;2023-02-28T03:14:26;-1.20;99.90
3051;DHT22;1535;51.098;6.414;2023-02-28T03:17:13;-1.30;99.90
3051;DHT22;1535;51.098;6.414;2023-02-28T03:19:51;-1.40;99.90
3051;DHT22;1535;51.098;6.414;2023-02-28T03:22:33;-1.50;99.90
3051;DHT22;1535;51.098;6.414;2023-02-28T03:25:07;-1.50;99.90
3051;DHT22;1535;51.098;6.414;2023-02-28T03:27:39;-1.60;99.90
3051;DHT22;1535;51.098;6.414;2023-02-28T03:30:10;-1.70;99.90
3051;DHT22;1535;51.098;6.414;2023-02-28T03:32:44;-1.80;99.90
3051;DHT22;1535;51.098;6.414;2023-02-28T03:35:21;-1.70;99.90
3051;DHT22;1535;51.098;6.414;2023-02-28T03:37:53;-1.80;99.90
3051;DHT22;1535;51.098;6.414;2023-02-28T03:40:23;-1.90;99.90
3051;DHT22;1535;51.098;6.414;2023-02-28T03:42:55;-2.00;99.90
3051;DHT22;1535;51.098;6.414;2023-02-28T03:45:26;-2.00;99.90
3051;DHT22;1535;51.098;6.414;2023-02-28T03:47:58;-2.00;99.90
3051;DHT22;1535;51.098;6.414;2023-02-28T03:50:31;-2.00;99.90
3051;DHT22;1535;51.098;6.414;2023-02-28T03:53:06;-2.00;99.90
3051;DHT22;1535;51.098;6.414;2023-02-28T03:55:37;-2.00;99.90
3051;DHT22;1535;51.098;6.414;2023-02-28T03:58:11;-1.90;99.90
3051;DHT22;1535;51.098;6.414;2023-02-28T04:00:41;-2.00;99.90
3051;DHT22;1535;51.098;6.414;2023-02-28T04:03:09;-2.00;99.90
3051;DHT22;1535;51.098;6.414;2023-02-28T04:05:46;-2.00;99.90
3051;DHT22;1535;51.098;6.414;2023-02-28T04:08:16;-2.00;99.90
3051;DHT22;1535;51.098;6.414;2023-02-28T04:10:46;-2.00;99.90
3051;DHT22;1535;51.098;6.414;2023-02-28T04:13:15;-2.00;99.90
3051;DHT22;1535;51.098;6.414;2023-02-28T04:15:41;-2.00;99.90
3051;DHT22;1535;51.098;6.414;2023-02-28T04:18:08;-2.00;99.90
3051;DHT22;1535;51.098;6.414;2023-02-28T04:20:36;-2.00;99.90
3051;DHT22;1535;51.098;6.414;2023-02-28T04:23:02;-2.00;99.90
3051;DHT22;1535;51.098;6.414;2023-02-28T04:25:30;-1.90;99.90
3051;DHT22;1535;51.098;6.414;2023-02-28T04:27:57;-1.90;99.90
3051;DHT22;1535;51.098;6.414;2023-02-28T04:30:24;-1.80;99.90
3051;DHT22;1535;51.098;6.414;2023-02-28T04:32:51;-1.80;99.90
3051;DHT22;1535;51.098;6.414;2023-02-28T04:35:18;-1.80;99.90
3051;DHT22;1535;51.098;6.414;2023-02-28T04:37:44;-1.70;99.90
3051;DHT22;1535;51.098;6.414;2023-02-28T04:40:12;-1.70;99.90
3051;DHT22;1535;51.098;6.414;2023-02-28T04:42:41;-1.60;99.90
3051;DHT22;1535;51.098;6.414;2023-02-28T04:45:09;-1.60;99.90
3051;DHT22;1535;51.098;6.414;2023-02-28T04:47:36;-1.60;99.90
3051;DHT22;1535;51.098;6.414;2023-02-28T04:50:04;-1.70;99.90
3051;DHT22;1535;51.098;6.414;2023-02-28T04:52:30;-1.70;99.90
3051;DHT22;1535;51.098;6.414;2023-02-28T04:54:57;-1.70;99.90
3051;DHT22;1535;51.098;6.414;2023-02-28T04:57:24;-1.70;99.90
3051;DHT22;1535;51.098;6.414;2023-02-28T04:59:52;-1.70;99.90
3051;DHT22;1535;51.098;6.414;2023-02-28T05:02:19;-1.70;99.90
3051;DHT22;1535;51.098;6.414;2023-02-28T05:04:46;-1.70;99.90
3051;DHT22;1535;51.098;6.414;2023-02-28T05:07:14;-1.60;99.90
3051;DHT22;1535;51.098;6.414;2023-02-28T05:09:41;-1.60;99.90
3051;DHT22;1535;51.098;6.414;2023-02-28T05:12:09;-1.70;99.90
3051;DHT22;1535;51.098;6.414;2023-02-28T05:14:36;-1.70;99.90
3051;DHT22;1535;51.098;6.414;2023-02-28T05:17:05;-1.70;99.90
3051;DHT22;1535;51.098;6.414;2023-02-28T05:19:32;-1.70;99.90
3051;DHT22;1535;51.098;6.414;2023-02-28T05:21:59;-1.70;99.90
3051;DHT22;1535;51.098;6.414;2023-02-28T05:24:26;-1.80;99.90
3051;DHT22;1535;51.098;6.414;2023-02-28T05:26:53;-1.80;99.90
3051;DHT22;1535;51.098;6.414;2023-02-28T05:29:21;-1.80;99.90
3051;DHT22;1535;51.098;6.414;2023-02-28T05:31:48;-1.90;99.90
3051;DHT22;1535;51.098;6.414;2023-02-28T05:34:17;-1.90;99.90
3051;DHT22;1535;51.098;6.414;2023-02-28T05:36:44;-1.90;99.90
3051;DHT22;1535;51.098;6.414;2023-02-28T05:39:11;-2.00;99.90
3051;DHT22;1535;51.098;6.414;2023-02-28T05:41:41;-2.00;99.90
3051;DHT22;1535;51.098;6.414;2023-02-28T05:44:08;-2.00;99.90
3051;DHT22;1535;51.098;6.414;2023-02-28T05:46:35;-2.10;99.90
3051;DHT22;1535;51.098;6.414;2023-02-28T05:49:02;-2.00;99.90
3051;DHT22;1535;51.098;6.414;2023-02-28T05:51:31;-2.10;99.90
3051;DHT22;1535;51.098;6.414;2023-02-28T05:54:00;-2.10;99.90
3051;DHT22;1535;51.098;6.414;2023-02-28T05:56:28;-2.00;99.90
3051;DHT22;1535;51.098;6.414;2023-02-28T05:58:55;-2.00;99.90
3051;DHT22;1535;51.098;6.414;2023-02-28T06:01:30;-2.10;99.90
3051;DHT22;1535;51.098;6.414;2023-02-28T06:03:58;-2.20;99.90
3051;DHT22;1535;51.098;6.414;2023-02-28T06:06:26;-2.20;99.90
3051;DHT22;1535;51.098;6.414;2023-02-28T06:08:55;-2.20;99.90
3051;DHT22;1535;51.098;6.414;2023-02-28T06:11:22;-2.20;99.90
3051;DHT22;1535;51.098;6.414;2023-02-28T06:13:54;-2.20;99.90
3051;DHT22;1535;51.098;6.414;2023-02-28T06:16:21;-2.20;99.90
3051;DHT22;1535;51.098;6.414;2023-02-28T06:18:48;-2.20;99.90
3051;DHT22;1535;51.098;6.414;2023-02-28T06:21:14;-2.20;99.90
3051;DHT22;1535;51.098;6.414;2023-02-28T06:23:41;-2.20;99.90
3051;DHT22;1535;51.098;6.414;2023-02-28T06:26:10;-2.30;99.90
3051;DHT22;1535;51.098;6.414;2023-02-28T06:28:37;-2.30;99.90
3051;DHT22;1535;51.098;6.414;2023-02-28T06:31:08;-2.30;99.90
3051;DHT22;1535;51.098;6.414;2023-02-28T06:33:36;-2.30;99.90
3051;DHT22;1535;51.098;6.414;2023-02-28T06:36:03;-2.30;99.90
3051;DHT22;1535;51.098;6.414;2023-02-28T06:38:30;-2.20;99.90
3051;DHT22;1535;51.098;6.414;2023-02-28T06:40:58;-2.20;99.90
3051;DHT22;1535;51.098;6.414;2023-02-28T06:43:28;-2.20;99.90
3051;DHT22;1535;51.098;6.414;2023-02-28T06:45:56;-2.20;99.90
3051;DHT22;1535;51.098;6.414;2023-02-28T06:48:23;-2.10;99.90
3051;DHT22;1535;51.098;6.414;2023-02-28T06:50:50;-2.20;99.90
3051;DHT22;1535;51.098;6.414;2023-02-28T06:53:17;-2.20;99.90
3051;DHT22;1535;51.098;6.414;2023-02-28T06:55:44;-2.10;99.90
3051;DHT22;1535;51.098;6.414;2023-02-28T06:58:11;-2.10;99.90
3051;DHT22;1535;51.098;6.414;2023-02-28T07:00:45;-2.00;99.90
3051;DHT22;1535;51.098;6.414;2023-02-28T07:03:12;-2.00;99.90
3051;DHT22;1535;51.098;6.414;2023-02-28T07:05:41;-1.90;99.90
3051;DHT22;1535;51.098;6.414;2023-02-28T07:08:08;-1.90;99.90
3051;DHT22;1535;51.098;6.414;2023-02-28T07:10:37;-1.80;99.90
3051;DHT22;1535;51.098;6.414;2023-02-28T07:13:05;-1.80;99.90
3051;DHT22;1535;51.098;6.414;2023-02-28T07:15:32;-1.70;99.90
3051;DHT22;1535;51.098;6.414;2023-02-28T07:18:00;-1.70;99.90
3051;DHT22;1535;51.098;6.414;2023-02-28T07:20:27;-1.60;99.90
3051;DHT22;1535;51.098;6.414;2023-02-28T07:22:55;-1.60;99.90
3051;DHT22;1535;51.098;6.414;2023-02-28T07:25:23;-1.60;99.90
3051;DHT22;1535;51.098;6.414;2023-02-28T07:27:50;-1.60;99.90
3051;DHT22;1535;51.098;6.414;2023-02-28T07:30:18;-1.50;99.90
3051;DHT22;1535;51.098;6.414;2023-02-28T07:32:45;-1.40;99.90
3051;DHT22;1535;51.098;6.414;2023-02-28T07:35:14;-1.40;99.90
3051;DHT22;1535;51.098;6.414;2023-02-28T07:37:42;-1.30;99.90
3051;DHT22;1535;51.098;6.414;2023-02-28T07:40:11;-1.20;99.90
3051;DHT22;1535;51.098;6.414;2023-02-28T07:42:38;-1.10;99.90
3051;DHT22;1535;51.098;6.414;2023-02-28T07:45:07;-1.00;99.90
3051;DHT22;1535;51.098;6.414;2023-02-28T07:47:34;-1.00;99.90
3051;DHT22;1535;51.098;6.414;2023-02-28T07:50:01;-0.80;99.90
3051;DHT22;1535;51.098;6.414;2023-02-28T07:52:29;-0.80;99.90
3051;DHT22;1535;51.098;6.414;2023-02-28T07:54:56;-0.70;99.90
3051;DHT22;1535;51.098;6.414;2023-02-28T07:57:23;-0.70;99.90
3051;DHT22;1535;51.098;6.414;2023-02-28T07:59:50;-0.60;99.90
3051;DHT22;1535;51.098;6.414;2023-02-28T08:02:18;-0.60;99.90
3051;DHT22;1535;51.098;6.414;2023-02-28T08:04:45;-0.50;99.90
3051;DHT22;1535;51.098;6.414;2023-02-28T08:07:13;-0.40;99.90
3051;DHT22;1535;51.098;6.414;2023-02-28T08:09:42;-0.30;99.90
3051;DHT22;1535;51.098;6.414;2023-02-28T08:12:09;-0.20;99.90
3051;DHT22;1535;51.098;6.414;2023-02-28T08:14:37;-0.10;99.90
3051;DHT22;1535;51.098;6.414;2023-02-28T08:17:05;0.00;99.90
3051;DHT22;1535;51.098;6.414;2023-02-28T08:19:32;0.10;99.90
3051;DHT22;1535;51.098;6.414;2023-02-28T08:21:58;0.20;99.90
3051;DHT22;1535;51.098;6.414;2023-02-28T08:24:26;0.30;99.90
3051;DHT22;1535;51.098;6.414;2023-02-28T08:26:54;0.40;99.90
3051;DHT22;1535;51.098;6.414;2023-02-28T08:29:22;0.50;99.90
3051;DHT22;1535;51.098;6.414;2023-02-28T08:31:49;0.60;99.90
3051;DHT22;1535;51.098;6.414;2023-02-28T08:34:16;0.70;99.90
3051;DHT22;1535;51.098;6.414;2023-02-28T08:36:43;0.90;99.90
3051;DHT22;1535;51.098;6.414;2023-02-28T08:39:11;1.00;99.90
3051;DHT22;1535;51.098;6.414;2023-02-28T08:41:38;1.10;99.90
3051;DHT22;1535;51.098;6.414;2023-02-28T08:44:07;1.20;99.90
3051;DHT22;1535;51.098;6.414;2023-02-28T08:46:33;1.30;99.90
3051;DHT22;1535;51.098;6.414;2023-02-28T08:49:00;1.40;99.90
3051;DHT22;1535;51.098;6.414;2023-02-28T08:51:28;1.60;99.90
3051;DHT22;1535;51.098;6.414;2023-02-28T08:53:58;1.60;99.90
3051;DHT22;1535;51.098;6.414;2023-02-28T08:56:26;1.70;99.90
3051;DHT22;1535;51.098;6.414;2023-02-28T08:58:55;1.80;99.90
3051;DHT22;1535;51.098;6.414;2023-02-28T09:01:25;1.90;99.90
3051;DHT22;1535;51.098;6.414;2023-02-28T09:03:54;2.10;99.90
3051;DHT22;1535;51.098;6.414;2023-02-28T09:06:22;2.30;99.90
3051;DHT22;1535;51.098;6.414;2023-02-28T09:08:49;2.20;99.90
3051;DHT22;1535;51.098;6.414;2023-02-28T09:11:17;2.40;99.90
3051;DHT22;1535;51.098;6.414;2023-02-28T09:13:45;2.60;99.90
3051;DHT22;1535;51.098;6.414;2023-02-28T09:16:13;2.80;99.90
3051;DHT22;1535;51.098;6.414;2023-02-28T09:18:43;2.90;99.90
3051;DHT22;1535;51.098;6.414;2023-02-28T09:21:11;2.90;99.90
3051;DHT22;1535;51.098;6.414;2023-02-28T09:23:40;3.20;99.90
3051;DHT22;1535;51.098;6.414;2023-02-28T09:26:07;3.30;99.20
3051;DHT22;1535;51.098;6.414;2023-02-28T09:28:34;3.40;96.90
3051;DHT22;1535;51.098;6.414;2023-02-28T09:31:01;3.40;97.20
3051;DHT22;1535;51.098;6.414;2023-02-28T09:33:30;3.50;96.80
3051;DHT22;1535;51.098;6.414;2023-02-28T09:36:02;3.60;96.80
3051;DHT22;1535;51.098;6.414;2023-02-28T09:38:29;3.70;94.70
3051;DHT22;1535;51.098;6.414;2023-02-28T09:40:58;3.70;91.00
3051;DHT22;1535;51.098;6.414;2023-02-28T09:43:28;3.90;91.90
3051;DHT22;1535;51.098;6.414;2023-02-28T09:45:59;4.10;91.70
3051;DHT22;1535;51.098;6.414;2023-02-28T09:48:31;4.10;90.80
3051;DHT22;1535;51.098;6.414;2023-02-28T09:51:05;4.10;87.70
3051;DHT22;1535;51.098;6.414;2023-02-28T09:53:34;4.10;87.60
3051;DHT22;1535;51.098;6.414;2023-02-28T09:56:07;3.80;87.60
3051;DHT22;1535;51.098;6.414;2023-02-28T09:58:39;3.70;87.50
3051;DHT22;1535;51.098;6.414;2023-02-28T10:01:17;4.00;89.60
3051;DHT22;1535;51.098;6.414;2023-02-28T10:03:48;4.40;88.70
3051;DHT22;1535;51.098;6.414;2023-02-28T10:06:20;4.40;86.60
3051;DHT22;1535;51.098;6.414;2023-02-28T10:08:52;4.40;84.70
3051;DHT22;1535;51.098;6.414;2023-02-28T10:11:23;4.30;85.80
3051;DHT22;1535;51.098;6.414;2023-02-28T10:13:54;4.30;82.60
3051;DHT22;1535;51.098;6.414;2023-02-28T10:16:31;4.00;81.00
3051;DHT22;1535;51.098;6.414;2023-02-28T10:19:03;4.40;85.90
3051;DHT22;1535;51.098;6.414;2023-02-28T10:21:35;4.70;83.90
3051;DHT22;1535;51.098;6.414;2023-02-28T10:24:07;5.30;85.00
3051;DHT22;1535;51.098;6.414;2023-02-28T10:26:37;5.80;81.50
3051;DHT22;1535;51.098;6.414;2023-02-28T10:29:04;5.90;78.60
3051;DHT22;1535;51.098;6.414;2023-02-28T10:31:31;5.70;78.20
3051;DHT22;1535;51.098;6.414;2023-02-28T10:33:58;6.40;77.70
3051;DHT22;1535;51.098;6.414;2023-02-28T10:36:25;6.90;75.90
3051;DHT22;1535;51.098;6.414;2023-02-28T10:38:53;7.30;74.50
3051;DHT22;1535;51.098;6.414;2023-02-28T10:41:28;6.90;68.80
3051;DHT22;1535;51.098;6.414;2023-02-28T10:44:15;7.50;68.90
3051;DHT22;1535;51.098;6.414;2023-02-28T10:46:44;7.80;69.60
3051;DHT22;1535;51.098;6.414;2023-02-28T10:49:14;8.50;67.10
3051;DHT22;1535;51.098;6.414;2023-02-28T10:51:43;8.40;64.70
3051;DHT22;1535;51.098;6.414;2023-02-28T10:54:19;8.30;63.10
3051;DHT22;1535;51.098;6.414;2023-02-28T10:57:05;7.80;63.80
3051;DHT22;1535;51.098;6.414;2023-02-28T10:59:34;8.40;64.60
3051;DHT22;1535;51.098;6.414;2023-02-28T11:02:02;9.10;62.00
3051;DHT22;1535;51.098;6.414;2023-02-28T11:04:34;9.00;60.00
3051;DHT22;1535;51.098;6.414;2023-02-28T11:07:04;8.80;59.20
3051;DHT22;1535;51.098;6.414;2023-02-28T11:09:35;8.80;60.20
3051;DHT22;1535;51.098;6.414;2023-02-28T11:12:19;8.70;57.30
3051;DHT22;1535;51.098;6.414;2023-02-28T11:14:49;8.20;59.70
3051;DHT22;1535;51.098;6.414;2023-02-28T11:17:20;8.60;59.80
3051;DHT22;1535;51.098;6.414;2023-02-28T11:19:50;9.20;58.90
3051;DHT22;1535;51.098;6.414;2023-02-28T11:22:20;9.60;57.50
3051;DHT22;1535;51.098;6.414;2023-02-28T11:24:52;9.00;56.10
3051;DHT22;1535;51.098;6.414;2023-02-28T11:27:46;8.80;56.50
3051;DHT22;1535;51.098;6.414;2023-02-28T11:30:26;8.30;56.90
3051;DHT22;1535;51.098;6.414;2023-02-28T11:32:54;8.00;57.70
3051;DHT22;1535;51.098;6.414;2023-02-28T11:35:26;7.80;56.70
3051;DHT22;1535;51.098;6.414;2023-02-28T11:37:54;8.20;57.70
3051;DHT22;1535;51.098;6.414;2023-02-28T11:40:28;8.20;57.30
3051;DHT22;1535;51.098;6.414;2023-02-28T11:43:13;8.40;57.80
3051;DHT22;1535;51.098;6.414;2023-02-28T11:45:58;8.70;57.90
3051;DHT22;1535;51.098;6.414;2023-02-28T11:48:33;8.60;56.20
3051;DHT22;1535;51.098;6.414;2023-02-28T11:51:14;9.00;57.10
3051;DHT22;1535;51.098;6.414;2023-02-28T11:53:55;8.90;55.80
3051;DHT22;1535;51.098;6.414;2023-02-28T11:56:32;8.90;55.00
3051;DHT22;1535;51.098;6.414;2023-02-28T11:59:21;9.00;55.40
3051;DHT22;1535;51.098;6.414;2023-02-28T12:02:15;9.10;54.20
3051;DHT22;1535;51.098;6.414;2023-02-28T12:07:42;9.20;55.00
3051;DHT22;1535;51.098;6.414;2023-02-28T12:10:20;9.20;54.30
3051;DHT22;1535;51.098;6.414;2023-02-28T12:12:56;9.70;56.20
3051;DHT22;1535;51.098;6.414;2023-02-28T12:15:49;9.60;53.50
3051;DHT22;1535;51.098;6.414;2023-02-28T12:18:27;9.40;54.40
3051;DHT22;1535;51.098;6.414;2023-02-28T12:21:01;10.00;53.10
3051;DHT22;1535;51.098;6.414;2023-02-28T12:23:58;10.10;54.40
3051;DHT22;1535;51.098;6.414;2023-02-28T12:26:34;10.50;52.10
3051;DHT22;1535;51.098;6.414;2023-02-28T12:29:10;10.20;51.80
3051;DHT22;1535;51.098;6.414;2023-02-28T12:31:46;9.20;51.40
3051;DHT22;1535;51.098;6.414;2023-02-28T12:34:17;9.50;54.10
3051;DHT22;1535;51.098;6.414;2023-02-28T12:36:47;10.50;52.90
3051;DHT22;1535;51.098;6.414;2023-02-28T12:39:18;10.20;51.00
3051;DHT22;1535;51.098;6.414;2023-02-28T12:41:49;9.50;53.40
3051;DHT22;1535;51.098;6.414;2023-02-28T12:44:23;9.60;54.70
3051;DHT22;1535;51.098;6.414;2023-02-28T12:46:55;9.80;55.20
3051;DHT22;1535;51.098;6.414;2023-02-28T12:49:28;10.80;52.80
3051;DHT22;1535;51.098;6.414;2023-02-28T12:51:58;9.80;51.30
3051;DHT22;1535;51.098;6.414;2023-02-28T12:54:30;10.10;51.40
3051;DHT22;1535;51.098;6.414;2023-02-28T12:57:02;10.10;50.90
3051;DHT22;1535;51.098;6.414;2023-02-28T12:59:36;9.70;51.60
3051;DHT22;1535;51.098;6.414;2023-02-28T13:02:38;9.90;54.30
3051;DHT22;1535;51.098;6.414;2023-02-28T13:05:29;11.10;54.00
3051;DHT22;1535;51.098;6.414;2023-02-28T13:08:29;10.80;53.00
3051;DHT22;1535;51.098;6.414;2023-02-28T13:11:02;10.60;49.30
3051;DHT22;1535;51.098;6.414;2023-02-28T13:13:30;10.20;50.60
3051;DHT22;1535;51.098;6.414;2023-02-28T13:16:04;10.20;49.90
3051;DHT22;1535;51.098;6.414;2023-02-28T13:18:36;10.60;50.90
3051;DHT22;1535;51.098;6.414;2023-02-28T13:21:06;10.40;50.10
3051;DHT22;1535;51.098;6.414;2023-02-28T13:23:40;10.30;51.00
3051;DHT22;1535;51.098;6.414;2023-02-28T13:26:08;10.20;50.50
3051;DHT22;1535;51.098;6.414;2023-02-28T13:35:45;9.50;52.20
3051;DHT22;1535;51.098;6.414;2023-02-28T13:38:32;10.10;51.00
3051;DHT22;1535;51.098;6.414;2023-02-28T13:44:17;10.50;50.70
3051;DHT22;1535;51.098;6.414;2023-02-28T13:49:50;10.70;50.60
3051;DHT22;1535;51.098;6.414;2023-02-28T13:52:20;10.40;49.80
3051;DHT22;1535;51.098;6.414;2023-02-28T13:55:21;10.50;49.60
3051;DHT22;1535;51.098;6.414;2023-02-28T13:58:00;10.20;49.50
3051;DHT22;1535;51.098;6.414;2023-02-28T14:00:41;10.00;50.90
3051;DHT22;1535;51.098;6.414;2023-02-28T14:03:19;10.30;50.10
3051;DHT22;1535;51.098;6.414;2023-02-28T14:06:08;10.50;51.10
3051;DHT22;1535;51.098;6.414;2023-02-28T14:08:47;11.80;51.60
3051;DHT22;1535;51.098;6.414;2023-02-28T14:11:26;11.50;48.70
3051;DHT22;1535;51.098;6.414;2023-02-28T14:13:53;11.00;48.40
3051;DHT22;1535;51.098;6.414;2023-02-28T14:16:22;10.70;50.00
3051;DHT22;1535;51.098;6.414;2023-02-28T14:18:51;10.60;51.30
3051;DHT22;1535;51.098;6.414;2023-02-28T14:21:23;10.30;49.40
3051;DHT22;1535;51.098;6.414;2023-02-28T14:26:58;11.30;50.60
3051;DHT22;1535;51.098;6.414;2023-02-28T14:32:27;10.50;48.90
3051;DHT22;1535;51.098;6.414;2023-02-28T14:35:05;10.80;50.60
3051;DHT22;1535;51.098;6.414;2023-02-28T14:37:39;10.90;48.70
3051;DHT22;1535;51.098;6.414;2023-02-28T14:40:15;11.00;47.80
3051;DHT22;1535;51.098;6.414;2023-02-28T14:42:47;11.00;48.80
3051;DHT22;1535;51.098;6.414;2023-02-28T14:45:18;11.00;49.00
3051;DHT22;1535;51.098;6.414;2023-02-28T14:47:45;10.50;47.80
3051;DHT22;1535;51.098;6.414;2023-02-28T14:50:18;10.60;48.10
3051;DHT22;1535;51.098;6.414;2023-02-28T14:52:46;10.10;48.40
3051;DHT22;1535;51.098;6.414;2023-02-28T14:55:18;10.10;50.10
3051;DHT22;1535;51.098;6.414;2023-02-28T14:57:51;10.20;49.20
3051;DHT22;1535;51.098;6.414;2023-02-28T15:00:23;10.30;49.60
3051;DHT22;1535;51.098;6.414;2023-02-28T15:02:51;10.60;49.50
3051;DHT22;1535;51.098;6.414;2023-02-28T15:05:25;10.50;49.40
3051;DHT22;1535;51.098;6.414;2023-02-28T15:08:02;10.10;49.20
3051;DHT22;1535;51.098;6.414;2023-02-28T15:10:31;10.60;49.50
3051;DHT22;1535;51.098;6.414;2023-02-28T15:12:59;10.60;48.30
3051;DHT22;1535;51.098;6.414;2023-02-28T15:15:40;11.20;48.30
3051;DHT22;1535;51.098;6.414;2023-02-28T15:18:14;10.80;49.00
3051;DHT22;1535;51.098;6.414;2023-02-28T15:20:43;10.60;48.90
3051;DHT22;1535;51.098;6.414;2023-02-28T15:23:11;10.60;49.20
3051;DHT22;1535;51.098;6.414;2023-02-28T15:25:40;10.20;49.60
3051;DHT22;1535;51.098;6.414;2023-02-28T15:28:14;10.60;50.80
3051;DHT22;1535;51.098;6.414;2023-02-28T15:30:51;10.50;50.50
3051;DHT22;1535;51.098;6.414;2023-02-28T15:33:20;10.20;49.50
3051;DHT22;1535;51.098;6.414;2023-02-28T15:35:47;10.20;49.70
3051;DHT22;1535;51.098;6.414;2023-02-28T15:38:17;10.30;50.00
3051;DHT22;1535;51.098;6.414;2023-02-28T15:40:51;10.10;50.10
3051;DHT22;1535;51.098;6.414;2023-02-28T15:43:27;10.20;50.90
3051;DHT22;1535;51.098;6.414;2023-02-28T15:45:57;10.10;49.90
3051;DHT22;1535;51.098;6.414;2023-02-28T15:48:27;9.90;51.20
3051;DHT22;1535;51.098;6.414;2023-02-28T15:50:56;9.70;51.20
3051;DHT22;1535;51.098;6.414;2023-02-28T15:53:27;9.90;51.70
3051;DHT22;1535;51.098;6.414;2023-02-28T15:56:00;10.00;49.70
3051;DHT22;1535;51.098;6.414;2023-02-28T15:58:27;9.60;51.10
3051;DHT22;1535;51.098;6.414;2023-02-28T16:01:06;9.80;51.80
3051;DHT22;1535;51.098;6.414;2023-02-28T16:03:45;9.80;51.50
3051;DHT22;1535;51.098;6.414;2023-02-28T16:06:37;9.60;51.90
3051;DHT22;1535;51.098;6.414;2023-02-28T16:09:06;9.60;52.40
3051;DHT22;1535;51.098;6.414;2023-02-28T16:11:38;9.70;52.50
3051;DHT22;1535;51.098;6.414;2023-02-28T16:14:12;9.40;52.60
3051;DHT22;1535;51.098;6.414;2023-02-28T16:16:43;9.40;51.70
3051;DHT22;1535;51.098;6.414;2023-02-28T16:19:10;8.80;51.80
3051;DHT22;1535;51.098;6.414;2023-02-28T16:21:37;9.10;53.10
3051;DHT22;1535;51.098;6.414;2023-02-28T16:24:05;9.20;53.90
3051;DHT22;1535;51.098;6.414;2023-02-28T16:26:32;8.70;53.60
3051;DHT22;1535;51.098;6.414;2023-02-28T16:29:01;8.30;54.20
3051;DHT22;1535;51.098;6.414;2023-02-28T16:31:28;8.00;55.00
3051;DHT22;1535;51.098;6.414;2023-02-28T16:33:55;7.90;55.40
3051;DHT22;1535;51.098;6.414;2023-02-28T16:36:24;7.90;56.00
3051;DHT22;1535;51.098;6.414;2023-02-28T16:38:51;8.10;56.20
3051;DHT22;1535;51.098;6.414;2023-02-28T16:41:19;8.00;56.70
3051;DHT22;1535;51.098;6.414;2023-02-28T16:43:49;7.60;57.00
3051;DHT22;1535;51.098;6.414;2023-02-28T16:46:18;7.50;57.70
3051;DHT22;1535;51.098;6.414;2023-02-28T16:48:47;7.30;58.30
3051;DHT22;1535;51.098;6.414;2023-02-28T16:51:17;7.20;58.20
3051;DHT22;1535;51.098;6.414;2023-02-28T16:53:44;7.00;58.70
3051;DHT22;1535;51.098;6.414;2023-02-28T16:56:16;6.80;59.20
3051;DHT22;1535;51.098;6.414;2023-02-28T16:58:44;6.50;59.50